リーブルヴィル の空港の天気 - METARとTAF

リーブルヴィル国際空港 ( FOOL / LBV ) - ガボン リーブルヴィル
飛行場実況気象(Metar)
観測時間10/22 13:00 WAT (10/22 12:00 UTC)
風向・風速西南西 4m/s
視程10km以上
天気現象
全天の4割程度の雲 雲底高度 400m
気温29℃
湿度79%
気圧1011hPa
METARFOOL 221200Z 24008KT 9999 SCT013 29/25 Q1011 NOSIG
過去の天気等 Google飛行場航空写真 Wunderground天気予報

過去48時間のMETAR

飛行場予報(TAF)
発表時間: 10/22 12:00 WAT (10/22 11:00 UTC)
予報対象時間: 22日13時 WAT ~ 23日19時 WAT
風向・風速南西 3m/s
視程10km以上
全天の4割程度の雲 雲底高度 300m
全天の8割程度の雲 雲底高度 910m
22日15時 WAT ~ 22日21時 WAT に 確率 30% で一時的に
天気現象
全天の4割程度の雲 雲底高度 400m
少しの積乱雲 雲底高度 610m
23日4時 WAT ~ 23日10時 WAT に 確率 30% で一時的に
視程3500m
天気現象雷雨
全天の8割程度の雲 雲底高度 240m
少しの積乱雲 雲底高度 490m
TAF COR FOOL 221100Z 2212/2318 23006KT 9999 SCT010 BKN030
PROB30 TEMPO 2214/2220 TS SCT013 FEW020CB
PROB30 TEMPO 2303/2309 3500 TSRA BKN008 FEW016CB